Time,TemperatureF,DewpointF,PressureIn,WindDirection,WindDirectionDegrees,WindSpeedMPH,WindSpeedGustMPH,Humidity,HourlyPrecipIn,Conditions,Clouds,dailyrainin,SoftwareType,DateUTC
2013-03-12 00:10:00,18.8,10.0,30.37,North,356,1.0,5.0,69,0.00,,,0.02,weatherlink.com 1.10,2013-03-12 06:10:00,
2013-03-12 00:25:00,16.6,9.0,30.37,NNW,328,2.0,4.0,72,0.00,,,0.00,weatherlink.com 1.10,2013-03-12 06:25:00,
2013-03-12 00:40:00,16.4,10.0,30.36,NNW,332,1.0,2.0,75,0.00,,,0.00,weatherlink.com 1.10,2013-03-12 06:40:00,
2013-03-12 00:55:00,16.1,9.0,30.36,North,11,1.0,2.0,73,0.00,,,0.00,weatherlink.com 1.10,2013-03-12 06:55:00,
2013-03-12 01:10:00,15.4,9.0,30.37,NNW,338,0.0,3.0,75,0.00,,,0.00,weatherlink.com 1.10,2013-03-12 07:10:00,
2013-03-12 01:25:00,14.7,7.0,30.37,WNW,300,2.0,4.0,71,0.00,,,0.00,weatherlink.com 1.10,2013-03-12 07:25:00,
2013-03-12 01:40:00,13.0,7.0,30.37,NNW,328,1.0,3.0,76,0.00,,,0.00,weatherlink.com 1.10,2013-03-12 07:40:00,
2013-03-12 01:55:00,14.3,8.0,30.37,WNW,300,1.0,2.0,77,0.00,,,0.00,weatherlink.com 1.10,2013-03-12 07:55:00,
2013-03-12 02:10:00,14.6,8.0,30.37,North,352,0.0,3.0,76,0.00,,,0.00,weatherlink.com 1.10,2013-03-12 08:10:00,
2013-03-12 02:25:00,14.9,8.0,30.38,WNW,297,1.0,4.0,74,0.00,,,0.00,weatherlink.com 1.10,2013-03-12 08:25:00,
2013-03-12 02:40:00,14.3,7.0,30.37,SW,232,0.0,2.0,74,0.00,,,0.00,weatherlink.com 1.10,2013-03-12 08:40:00,
2013-03-12 02:55:00,13.2,7.0,30.37,NNW,342,1.0,1.0,77,0.00,,,0.00,weatherlink.com 1.10,2013-03-12 08:55:00,
2013-03-12 03:10:00,14.0,7.0,30.37,West,281,0.0,2.0,74,0.00,,,0.00,weatherlink.com 1.10,2013-03-12 09:10:00,
2013-03-12 03:26:00,12.6,7.0,30.37,WNW,283,0.0,0.0,77,0.00,,,0.00,weatherlink.com 1.10,2013-03-12 09:26:00,
2013-03-12 03:41:00,11.0,5.0,30.37,NW,321,0.0,2.0,78,0.00,,,0.00,weatherlink.com 1.10,2013-03-12 09:41:00,
2013-03-12 03:56:00,11.5,6.0,30.38,NNW,333,0.0,1.0,79,0.00,,,0.00,weatherlink.com 1.10,2013-03-12 09:56:00,
2013-03-12 04:11:00,10.0,5.0,30.38,West,274,0.0,0.0,81,0.00,,,0.00,weatherlink.com 1.10,2013-03-12 10:11:00,
2013-03-12 04:56:00,10.4,6.0,30.39,NW,321,2.0,3.0,82,0.00,,,0.00,weatherlink.com 1.10,2013-03-12 10:56:00,
2013-03-12 05:11:00,8.5,4.0,30.39,NW,324,2.0,3.0,81,0.00,,,0.00,weatherlink.com 1.10,2013-03-12 11:11:00,
2013-03-12 05:26:00,9.6,5.0,30.40,WNW,300,2.0,2.0,82,0.00,,,0.00,weatherlink.com 1.10,2013-03-12 11:26:00,
2013-03-12 05:41:00,8.1,3.0,30.40,WNW,291,0.0,3.0,81,0.00,,,0.00,weatherlink.com 1.10,2013-03-12 11:41:00,
2013-03-12 05:56:00,8.0,4.0,30.41,NW,321,0.0,0.0,84,0.00,,,0.00,weatherlink.com 1.10,2013-03-12 11:56:00,
2013-03-12 06:11:00,9.6,5.0,30.41,WNW,287,1.0,4.0,83,0.00,,,0.00,weatherlink.com 1.10,2013-03-12 12:11:00,
2013-03-12 06:26:00,8.1,4.0,30.42,North,1,1.0,1.0,84,0.00,,,0.00,weatherlink.com 1.10,2013-03-12 12:26:00,
2013-03-12 06:41:00,8.5,5.0,30.43,WNW,288,0.0,1.0,84,0.00,,,0.00,weatherlink.com 1.10,2013-03-12 12:41:00,
2013-03-12 06:56:00,7.6,4.0,30.43,NW,314,0.0,1.0,85,0.00,,,0.00,weatherlink.com 1.10,2013-03-12 12:56:00,
2013-03-12 07:11:00,7.5,4.0,30.44,NW,305,2.0,2.0,85,0.00,,,0.00,weatherlink.com 1.10,2013-03-12 13:11:00,
2013-03-12 07:26:00,7.8,5.0,30.44,WNW,291,1.0,3.0,86,0.00,,,0.00,weatherlink.com 1.10,2013-03-12 13:26:00,
2013-03-12 07:41:00,7.0,3.0,30.45,NNW,329,0.0,0.0,84,0.00,,,0.00,weatherlink.com 1.10,2013-03-12 13:41:00,
2013-03-12 07:56:00,6.3,3.0,30.44,West,266,0.0,1.0,84,0.00,,,0.00,weatherlink.com 1.10,2013-03-12 13:56:00,
2013-03-12 08:11:00,6.2,2.0,30.44,WNW,302,1.0,2.0,84,0.00,,,0.00,weatherlink.com 1.10,2013-03-12 14:11:00,
2013-03-12 08:26:00,8.1,5.0,30.45,NW,309,3.0,5.0,86,0.00,,,0.00,weatherlink.com 1.10,2013-03-12 14:26:00,
2013-03-12 08:41:00,11.5,7.0,30.46,NNW,347,1.0,3.0,82,0.00,,,0.00,weatherlink.com 1.10,2013-03-12 14:41:00,
2013-03-12 08:56:00,14.5,8.0,30.46,WSW,253,0.0,0.0,76,0.00,,,0.00,weatherlink.com 1.10,2013-03-12 14:56:00,
2013-03-12 09:12:00,15.8,9.0,30.46,NW,311,3.0,3.0,74,0.00,,,0.00,weatherlink.com 1.10,2013-03-12 15:12:00,
2013-03-12 09:27:00,16.8,9.0,30.45,NNE,23,1.0,3.0,72,0.00,,,0.00,weatherlink.com 1.10,2013-03-12 15:27:00,
2013-03-12 09:41:00,19.5,11.0,30.44,NW,305,2.0,3.0,68,0.00,,,0.00,weatherlink.com 1.10,2013-03-12 15:41:00,
2013-03-12 09:57:00,21.7,12.0,30.43,West,274,0.0,2.0,65,0.00,,,0.00,weatherlink.com 1.10,2013-03-12 15:57:00,
2013-03-12 10:12:00,24.6,12.0,30.43,WNW,283,0.0,2.0,59,0.00,,,0.00,weatherlink.com 1.10,2013-03-12 16:12:00,
2013-03-12 10:27:00,24.1,12.0,30.43,ESE,117,3.0,3.0,60,0.00,,,0.00,weatherlink.com 1.10,2013-03-12 16:27:00,
2013-03-12 10:42:00,24.4,14.0,30.43,SE,127,1.0,4.0,65,0.00,,,0.00,weatherlink.com 1.10,2013-03-12 16:42:00,
2013-03-12 10:57:00,29.3,16.0,30.42,South,184,0.0,1.0,58,0.00,,,0.00,weatherlink.com 1.10,2013-03-12 16:57:00,
2013-03-12 11:12:00,32.1,18.0,30.41,ESE,120,0.0,2.0,56,0.00,,,0.00,weatherlink.com 1.10,2013-03-12 17:12:00,
2013-03-12 11:27:00,38.0,20.0,30.42,SSW,198,0.0,0.0,49,0.00,,,0.00,weatherlink.com 1.10,2013-03-12 17:27:00,
2013-03-12 11:42:00,37.1,19.0,30.40,ESE,103,1.0,2.0,48,0.00,,,0.00,weatherlink.com 1.10,2013-03-12 17:42:00,
2013-03-12 11:57:00,37.7,22.0,30.39,ESE,123,1.0,2.0,53,0.00,,,0.00,weatherlink.com 1.10,2013-03-12 17:57:00,
2013-03-12 12:12:00,38.8,22.0,30.37,SE,125,7.0,9.0,51,0.00,,,0.00,weatherlink.com 1.10,2013-03-12 18:12:00,
2013-03-12 12:27:00,37.0,25.0,30.36,ESE,122,4.0,7.0,61,0.00,,,0.00,weatherlink.com 1.10,2013-03-12 18:27:00,
2013-03-12 12:42:00,41.6,19.0,30.34,SE,134,3.0,4.0,41,0.00,,,0.00,weatherlink.com 1.10,2013-03-12 18:42:00,
2013-03-12 12:57:00,43.3,17.0,30.33,SE,133,1.0,4.0,34,0.00,,,0.00,weatherlink.com 1.10,2013-03-12 18:57:00,
2013-03-12 13:42:00,46.7,15.0,30.32,WNW,300,2.0,2.0,28,0.00,,,0.00,weatherlink.com 1.10,2013-03-12 19:42:00,
2013-03-12 13:57:00,47.3,14.0,30.32,West,280,0.0,2.0,26,0.00,,,0.00,weatherlink.com 1.10,2013-03-12 19:57:00,
2013-03-12 14:12:00,48.3,12.0,30.32,WNW,285,5.0,5.0,23,0.00,,,0.00,weatherlink.com 1.10,2013-03-12 20:12:00,
2013-03-12 14:27:00,46.3,15.0,30.31,North,353,14.0,19.0,29,0.00,,,0.00,weatherlink.com 1.10,2013-03-12 20:27:00,
2013-03-12 14:42:00,45.6,14.0,30.31,NNE,18,9.0,20.0,28,0.00,,,0.00,weatherlink.com 1.10,2013-03-12 20:42:00,
2013-03-12 14:57:00,45.2,16.0,30.31,NW,317,7.0,17.0,31,0.00,,,0.00,weatherlink.com 1.10,2013-03-12 20:57:00,
2013-03-12 15:12:00,44.8,16.0,30.32,NW,313,11.0,13.0,31,0.00,,,0.00,weatherlink.com 1.10,2013-03-12 21:12:00,
2013-03-12 15:27:00,45.3,15.0,30.32,NW,321,12.0,17.0,30,0.00,,,0.00,weatherlink.com 1.10,2013-03-12 21:27:00,
2013-03-12 15:42:00,45.3,15.0,30.32,NW,324,10.0,14.0,29,0.00,,,0.00,weatherlink.com 1.10,2013-03-12 21:42:00,
2013-03-12 15:57:00,45.5,13.0,30.32,NNW,330,9.0,15.0,27,0.00,,,0.00,weatherlink.com 1.10,2013-03-12 21:57:00,
2013-03-12 16:13:00,46.0,15.0,30.32,NNW,341,7.0,14.0,29,0.00,,,0.00,weatherlink.com 1.10,2013-03-12 22:13:00,
2013-03-12 16:28:00,45.2,14.0,30.33,NNE,26,8.0,12.0,28,0.00,,,0.00,weatherlink.com 1.10,2013-03-12 22:28:00,
2013-03-12 16:43:00,45.1,14.0,30.32,NNW,330,6.0,11.0,29,0.00,,,0.00,weatherlink.com 1.10,2013-03-12 22:43:00,
2013-03-12 16:58:00,45.4,15.0,30.32,NNW,330,7.0,12.0,30,0.00,,,0.00,weatherlink.com 1.10,2013-03-12 22:58:00,
2013-03-12 17:13:00,45.5,16.0,30.33,NNW,335,6.0,13.0,30,0.00,,,0.00,weatherlink.com 1.10,2013-03-12 23:13:00,
2013-03-12 17:28:00,44.4,15.0,30.33,NW,314,6.0,13.0,30,0.00,,,0.00,weatherlink.com 1.10,2013-03-12 23:28:00,
2013-03-12 17:43:00,44.5,15.0,30.33,NW,317,9.0,13.0,31,0.00,,,0.00,weatherlink.com 1.10,2013-03-12 23:43:00,
2013-03-12 17:58:00,43.9,17.0,30.34,NNW,340,4.0,12.0,34,0.00,,,0.00,weatherlink.com 1.10,2013-03-12 23:58:00,
2013-03-12 18:13:00,42.7,17.0,30.34,NW,319,6.0,11.0,36,0.00,,,0.00,weatherlink.com 1.10,2013-03-13 00:13:00,
2013-03-12 18:28:00,42.1,19.0,30.34,WNW,288,4.0,7.0,39,0.00,,,0.00,weatherlink.com 1.10,2013-03-13 00:28:00,
2013-03-12 18:43:00,40.0,15.0,30.35,NW,312,5.0,10.0,37,0.00,,,0.00,weatherlink.com 1.10,2013-03-13 00:43:00,
2013-03-12 18:58:00,39.1,17.0,30.36,NNW,328,5.0,7.0,41,0.00,,,0.00,weatherlink.com 1.10,2013-03-13 00:58:00,
2013-03-12 19:13:00,37.1,18.0,30.36,NW,314,4.0,6.0,46,0.00,,,0.00,weatherlink.com 1.10,2013-03-13 01:13:00,
2013-03-12 19:29:00,35.9,16.0,30.37,NW,312,5.0,5.0,45,0.00,,,0.00,weatherlink.com 1.10,2013-03-13 01:29:00,
2013-03-12 19:43:00,34.2,17.0,30.38,WNW,284,0.0,3.0,49,0.00,,,0.00,weatherlink.com 1.10,2013-03-13 01:43:00,
2013-03-12 19:58:00,33.5,17.0,30.39,WNW,299,3.0,4.0,50,0.00,,,0.00,weatherlink.com 1.10,2013-03-13 01:58:00,
2013-03-12 20:13:00,33.1,15.0,30.39,West,271,1.0,5.0,48,0.00,,,0.00,weatherlink.com 1.10,2013-03-13 02:13:00,
2013-03-12 20:28:00,32.1,15.0,30.40,West,278,2.0,5.0,49,0.00,,,0.00,weatherlink.com 1.10,2013-03-13 02:28:00,
2013-03-12 20:43:00,30.7,13.0,30.41,NNW,335,1.0,3.0,49,0.00,,,0.00,weatherlink.com 1.10,2013-03-13 02:43:00,
2013-03-12 20:58:00,30.2,14.0,30.42,NNW,340,4.0,4.0,51,0.00,,,0.00,weatherlink.com 1.10,2013-03-13 02:58:00,
2013-03-12 21:13:00,28.5,14.0,30.43,NW,319,3.0,7.0,55,0.00,,,0.00,weatherlink.com 1.10,2013-03-13 03:13:00,
2013-03-12 21:28:00,27.7,14.0,30.43,NNW,328,3.0,6.0,56,0.00,,,0.00,weatherlink.com 1.10,2013-03-13 03:28:00,
2013-03-12 21:43:00,27.0,13.0,30.43,WNW,296,1.0,8.0,56,0.00,,,0.00,weatherlink.com 1.10,2013-03-13 03:43:00,
2013-03-12 21:58:00,26.8,12.0,30.44,NNW,333,5.0,8.0,55,0.00,,,0.00,weatherlink.com 1.10,2013-03-13 03:58:00,
2013-03-12 22:13:00,24.8,13.0,30.45,West,266,0.0,6.0,60,0.00,,,0.00,weatherlink.com 1.10,2013-03-13 04:13:00,
2013-03-12 22:28:00,25.0,13.0,30.46,NW,324,4.0,7.0,61,0.00,,,0.00,weatherlink.com 1.10,2013-03-13 04:28:00,
2013-03-12 22:43:00,25.8,13.0,30.46,North,356,3.0,8.0,59,0.00,,,0.00,weatherlink.com 1.10,2013-03-13 04:43:00,
2013-03-12 22:58:00,25.2,12.0,30.47,NNW,330,4.0,6.0,58,0.00,,,0.00,weatherlink.com 1.10,2013-03-13 04:58:00,
2013-03-12 23:13:00,24.6,12.0,30.48,NNW,330,5.0,7.0,60,0.00,,,0.00,weatherlink.com 1.10,2013-03-13 05:13:00,
2013-03-12 23:28:00,23.2,12.0,30.48,West,278,1.0,6.0,62,0.00,,,0.00,weatherlink.com 1.10,2013-03-13 05:28:00,
2013-03-12 23:43:00,23.2,12.0,30.48,NNW,342,4.0,6.0,62,0.00,,,0.00,weatherlink.com 1.10,2013-03-13 05:43:00,
2013-03-12 23:58:00,21.8,11.0,30.49,WNW,293,5.0,6.0,62,0.00,,,0.00,weatherlink.com 1.10,2013-03-13 05:58:00,